Terminal Aerodrome Forecast
Issued by NWS

Home | Current Version | Previous Version | Text Only | Print | Product List | Glossary On
Versions: 1 2 3 4 5 6 7 8 9 10 11 12 13 14
000
FTUS42 TJSJ 280500
TAFJPS
TAF
TJPS 280520Z 2806/2906 05002KT P6SM SKC
     FM281450 15011KT P6SM FEW035
     FM282200 07005KT P6SM SCT050=

USA.gov is the U.S. government's official web portal to all federal, state and local government web resources and services.